Terminal Aerodrome Forecast
Issued by NWS

Home | Current Version | Previous Version | Text Only | Print | Product List | Glossary On
Versions: 1 2 3 4 5 6 7 8 9 10 11 12 13 14 15 16 17 18
904
FTUS46 KMFR 221407 AAA
TAFLMT
TAF AMD
KLMT 221407Z 2214/2312 00000KT P6SM -RA BKN017 OVC030
     FM222000 30009KT P6SM VCSH BKN040 OVC080
     FM222300 32013G20KT P6SM -SHRA BKN040 OVC100
     FM230400 31006KT P6SM SCT040 OVC100=

USA.gov is the U.S. government's official web portal to all federal, state and local government web resources and services.